Surface observations / Quebec / CYHU

Quebec | Canada | USA | France | UK | Europe | Elsewhere

Display: Info & Location for CYHU | Help decoding METAR

YHU SAINT-HUBERT ARPT QB CN
Raw surface observations for station CYHU
CYHU 192100Z AUTO 25009KT 9SM CLR M05/M09 A3014 RMK SLP207=
CYHU 192000Z AUTO 27003KT 9SM CLR M03/M11 A3011 RMK SLP199=
CYHU 191900Z AUTO 31004KT 9SM CLR M03/M10 A3009 RMK SLP192=
CYHU 191800Z AUTO 29005KT 250V340 9SM BKN025 M03/M09 A3009 RMK SLP191=
CYHU 191700Z AUTO 27008KT 9SM SCT021 M04/M09 A3009 RMK SLP189=
CYHU 191600Z AUTO 27008KT 9SM CLR M04/M09 A3009 RMK SLP191=
CYHU 191500Z AUTO 32008KT 8SM OVC025 M04/M09 A3009 RMK SLP191=
CYHU 191438Z AUTO 32008KT 9SM OVC025 M04/M09 A3008 RMK SLP187=
CYHU 191400Z AUTO 33010KT 9SM OVC023 M04/M09 A3007 RMK SLP183=
CYHU 191300Z AUTO 30008KT 9SM OVC023 M04/M08 A3004 RMK SLP175=
CYHU 191200Z AUTO 31007KT 9SM OVC023 M03/M07 A3001 RMK SLP165=
CYHU 191100Z AUTO 33005KT 9SM OVC023 M03/M07 A2999 RMK SLP158=
CYHU 191000Z AUTO 32004KT 280V360 9SM OVC023 M03/M07 A2998 RMK SLP154=
CYHU 190959Z AUTO 33005KT 280V360 9SM OVC023 M03/M07 A2998 RMK SLP154=
CYHU 190944Z AUTO 32005KT 9SM OVC025 M03/M07 A2998 RMK SLP152=
CYHU 190900Z AUTO 35007KT 9SM BKN023 OVC027 M03/M07 A2997 RMK SLP150=
CYHU 190800Z AUTO 34010KT 9SM OVC022 M03/M06 A2997 RMK SLP149=
CYHU 190725Z AUTO 33007KT 9SM BKN020 OVC027 M02/M05 A2996 RMK SLP147=
CYHU 190717Z AUTO 33007KT 9SM SCT020 OVC025 M02/M06 A2996 RMK SLP146=
CYHU 190700Z AUTO 32007KT 9SM BKN020 OVC025 M02/M05 A2996 RMK SLP145=
CYHU 190612Z AUTO 32006KT 9SM BKN020 OVC028 M02/M05 A2994 RMK SLP141=
CYHU 190600Z AUTO 32007KT 9SM FEW018 OVC028 M02/M05 A2994 RMK SLP141=
CYHU 190533Z AUTO 29006KT 9SM OVC027 M02/M05 A2994 RMK SLP141=
CYHU 190531Z AUTO 31007KT 9SM BKN023 OVC029 M02/M05 A2994 RMK SLP141=
CYHU 190527Z AUTO 31008KT 9SM OVC025 M02/M05 A2994 RMK SLP141=
CYHU 190500Z AUTO 30004KT 9SM OVC023 M01/M05 A2994 RMK SLP140=
CYHU 190419Z AUTO 31007KT 9SM OVC023 M01/M06 A2994 RMK SLP139=
CYHU 190400Z AUTO 31007KT 9SM -SN OVC023 M01/M05 A2994 RMK SLP139=
CYHU 190340Z AUTO 31006KT 9SM -SN OVC021 M01/M05 A2994 RMK SLP139=
CYHU 190324Z AUTO 32006KT 9SM OVC019 M01/M05 A2994 RMK SLP139=
CYHU 190300Z AUTO 32007KT 9SM -SN OVC019 M01/M05 A2993 RMK SLP138=
CYHU 190211Z AUTO 30009KT 9SM -SN OVC021 M01/M04 A2993 RMK SLP137=
CYHU 190200Z AUTO 29008KT 9SM OVC023 M01/M04 A2993 RMK SLP137=
CYHU 190152Z AUTO 28009KT 9SM OVC023 M01/M04 A2993 RMK SLP137=
CYHU 190100Z AUTO 28010KT 9SM OVC027 M01/M04 A2993 RMK SLP136=
CYHU 190000Z AUTO 29009G15KT 9SM BKN027 OVC050 M01/M04 A2992 RMK SLP133=
CYHU 182300Z AUTO 29010KT 9SM BKN030 OVC038 M00/M03 A2991 RMK SLP130=
CYHU 182200Z AUTO 32010KT 9SM BKN032 OVC050 00/M04 A2990 RMK SLP126=
CYHU 182147Z AUTO 32007KT 9SM SCT024 BKN030 OVC050 M00/M04 A2990 RMK SLP125=
CYHU 182100Z AUTO 35006KT 9SM BKN020 BKN025 OVC030 00/M03 A2989 RMK SLP122=
CYHU 182059Z AUTO 35006KT 9SM BKN020 BKN025 OVC030 00/M03 A2989 RMK SLP122=